Time;durP1;ratioP1;P1;durP2;ratioP2;P2;SDS_P1;SDS_P2;PMS_P1;PMS_P2;Temp;Humidity;BMP_temperature;BMP_pressure;BME280_temperature;BME280_humidity;BME280_pressure;Samples;Min_cycle;Max_cycle;Signal;HPM_P1;HPM_P2
2022/11/24 00:01:25;;;;;;;;;;;;;;;;;;4890293;29;19935;-62
2022/11/24 00:03:50;;;;;;;;;;;;;;;;;;4897860;29;20499;-62
2022/11/24 00:06:15;;;;;;;;;;;;;;;;;;4900320;29;19974;-62
2022/11/24 00:08:46;;;;;;;;;;;;;;;;;;4899030;29;20518;-62
2022/11/24 00:11:11;;;;;;;;;;;;;;;;;;4897145;29;20046;-61
2022/11/24 00:13:39;;;;;;;;;;;;;;;;;;4899354;29;19919;-62
2022/11/24 00:16:04;;;;;;;;;;;;;;;;;;4899992;29;20427;-62
2022/11/24 00:18:30;;;;;;;;;;;;;;;;;;4902154;29;19923;-63
2022/11/24 00:20:58;;;;;;;;;;;;;;;;;;4900814;29;19966;-63
2022/11/24 00:23:28;;;;;;;;;;;;;;;;;;4900250;29;19960;-63
2022/11/24 00:25:55;;;;;;;;;;;;;;;;;;4899338;29;19922;-61
2022/11/24 00:28:20;;;;;;;;;;;;;;;;;;4880436;29;20001;-62
2022/11/24 00:30:46;;;;;;;;;;;;;;;;;;4880269;29;19919;-63
2022/11/24 00:33:14;;;;;;;;;;;;;;;;;;4880247;29;19919;-63
2022/11/24 00:35:39;;;;;;;;;;;;;;;;;;4900546;29;20521;-63
2022/11/24 00:38:04;;;;;;;;;;;;;;;;;;4890143;29;19919;-63
2022/11/24 00:40:32;;;;;;;;;;;;;;;;;;4898823;29;19924;-62
2022/11/24 00:42:59;;;;;;;;;;;;;;;;;;4882339;29;19973;-63
2022/11/24 00:45:24;;;;;;;;;;;;;;;;;;4882444;29;19927;-61
2022/11/24 00:47:52;;;;;;;;;;;;;;;;;;4881953;29;19992;-63
2022/11/24 00:50:20;;;;;;;;;;;;;;;;;;4899385;29;20375;-62
2022/11/24 00:52:45;;;;;;;;;;;;;;;;;;4897088;29;19960;-63
2022/11/24 00:55:15;;;;;;;;;;;;;;;;;;4898921;29;19919;-60
2022/11/24 00:57:46;;;;;;;;;;;;;;;;;;4897526;29;19974;-62
2022/11/24 01:00:18;;;;;;;;;;;;;;;;;;4880823;29;19930;-62
2022/11/24 01:02:43;;;;;;;;;;;;;;;;;;4898444;29;20013;-62
2022/11/24 01:05:11;;;;;;;;;;;;;;;;;;4897805;29;20013;-62
2022/11/24 01:07:39;;;;;;;;;;;;;;;;;;4880610;29;19927;-63
2022/11/24 01:10:06;;;;;;;;;;;;;;;;;;4899207;29;20382;-63
2022/11/24 01:12:32;;;;;;;;;;;;;;;;;;4889570;29;19941;-63
2022/11/24 01:14:57;;;;;;;;;;;;;;;;;;4896164;29;20369;-63
2022/11/24 01:17:25;;;;;;;;;;;;;;;;;;4882433;29;20267;-62
2022/11/24 01:20:08;;;;;;;;;;;;;;;;;;4875930;29;19954;-63
2022/11/24 01:22:41;;;;;;;;;;;;;;;;;;4888025;29;20033;-63
2022/11/24 01:25:10;;;;;;;;;;;;;;;;;;4900342;29;19927;-62
2022/11/24 01:27:35;;;;;;;;;;;;;;;;;;4903340;29;20015;-61
2022/11/24 01:30:01;;;;;;;;;;;;;;;;;;4900741;29;19927;-62
2022/11/24 01:32:32;;;;;;;;;;;;;;;;;;4903091;29;19923;-62
2022/11/24 01:34:57;;;;;;;;;;;;;;;;;;4886366;29;19923;-62
2022/11/24 01:37:22;;;;;;;;;;;;;;;;;;4877692;29;19938;-62
2022/11/24 01:39:50;;;;;;;;;;;;;;;;;;4904180;29;19924;-62
2022/11/24 01:42:15;;;;;;;;;;;;;;;;;;4891053;29;20018;-62
2022/11/24 01:44:41;;;;;;;;;;;;;;;;;;4877685;29;20282;-63
2022/11/24 01:47:06;;;;;;;;;;;;;;;;;;4903148;29;19997;-61
2022/11/24 01:49:34;;;;;;;;;;;;;;;;;;4903561;29;19920;-62
2022/11/24 01:52:01;;;;;;;;;;;;;;;;;;4902216;29;19930;-62
2022/11/24 01:54:29;;;;;;;;;;;;;;;;;;4902584;29;19927;-62
2022/11/24 01:56:54;;;;;;;;;;;;;;;;;;4884506;29;19930;-62
2022/11/24 01:59:28;;;;;;;;;;;;;;;;;;4886740;29;19923;-61
2022/11/24 02:01:54;;;;;;;;;;;;;;;;;;4900578;29;19930;-62
2022/11/24 02:04:22;;;;;;;;;;;;;;;;;;4904078;29;19933;-62
2022/11/24 02:06:47;;;;;;;;;;;;;;;;;;4902100;29;20260;-61
2022/11/24 02:09:13;;;;;;;;;;;;;;;;;;4885528;29;19929;-62
2022/11/24 02:11:39;;;;;;;;;;;;;;;;;;4903361;29;19974;-62
2022/11/24 02:14:05;;;;;;;;;;;;;;;;;;4902272;29;20009;-62
2022/11/24 02:16:30;;;;;;;;;;;;;;;;;;4902798;29;19945;-62
2022/11/24 02:18:58;;;;;;;;;;;;;;;;;;4894463;29;19926;-62
2022/11/24 02:21:26;;;;;;;;;;;;;;;;;;4902305;29;19934;-61
2022/11/24 02:23:53;;;;;;;;;;;;;;;;;;4887047;29;20029;-62
2022/11/24 02:26:19;;;;;;;;;;;;;;;;;;4900256;29;20014;-62
2022/11/24 02:28:44;;;;;;;;;;;;;;;;;;4893513;29;20192;-60
2022/11/24 02:31:09;;;;;;;;;;;;;;;;;;4900447;29;20311;-61
2022/11/24 02:33:35;;;;;;;;;;;;;;;;;;4901276;29;19919;-62
2022/11/24 02:36:03;;;;;;;;;;;;;;;;;;4903291;29;19918;-62
2022/11/24 02:38:28;;;;;;;;;;;;;;;;;;4892228;29;19927;-62
2022/11/24 02:40:57;;;;;;;;;;;;;;;;;;4900148;29;19930;-62
2022/11/24 02:43:25;;;;;;;;;;;;;;;;;;4901606;29;19923;-62
2022/11/24 02:45:50;;;;;;;;;;;;;;;;;;4886552;29;20187;-61
2022/11/24 02:48:15;;;;;;;;;;;;;;;;;;4885424;29;19919;-62
2022/11/24 02:50:45;;;;;;;;;;;;;;;;;;4883757;29;20390;-61
2022/11/24 02:53:13;;;;;;;;;;;;;;;;;;4885537;29;20993;-62
2022/11/24 02:55:38;;;;;;;;;;;;;;;;;;4892537;29;20022;-64
2022/11/24 02:58:06;;;;;;;;;;;;;;;;;;4887590;29;19919;-62
2022/11/24 03:00:34;;;;;;;;;;;;;;;;;;4887677;29;19927;-62
2022/11/24 03:02:59;;;;;;;;;;;;;;;;;;4891785;29;19997;-61
2022/11/24 03:05:27;;;;;;;;;;;;;;;;;;4884268;29;20323;-62
2022/11/24 03:07:55;;;;;;;;;;;;;;;;;;4887397;29;19985;-61
2022/11/24 03:10:25;;;;;;;;;;;;;;;;;;4893233;29;19923;-62
2022/11/24 03:12:53;;;;;;;;;;;;;;;;;;4902026;29;19923;-60
2022/11/24 03:15:18;;;;;;;;;;;;;;;;;;4900991;29;19970;-62
2022/11/24 03:17:46;;;;;;;;;;;;;;;;;;4902731;29;19933;-61
2022/11/24 03:20:11;;;;;;;;;;;;;;;;;;4901200;29;19949;-62
2022/11/24 03:22:36;;;;;;;;;;;;;;;;;;4890383;29;20374;-62
2022/11/24 03:25:04;;;;;;;;;;;;;;;;;;4899658;29;19927;-61
2022/11/24 03:27:29;;;;;;;;;;;;;;;;;;4888298;29;20399;-63
2022/11/24 03:29:58;;;;;;;;;;;;;;;;;;4900033;29;19919;-62
2022/11/24 03:32:25;;;;;;;;;;;;;;;;;;4900871;29;19919;-62
2022/11/24 03:34:50;;;;;;;;;;;;;;;;;;4882837;29;19930;-62
2022/11/24 03:37:16;;;;;;;;;;;;;;;;;;4884346;29;19930;-63
2022/11/24 03:39:41;;;;;;;;;;;;;;;;;;4899399;29;20048;-61
2022/11/24 03:42:06;;;;;;;;;;;;;;;;;;4883151;29;19934;-63
2022/11/24 03:44:37;;;;;;;;;;;;;;;;;;4882282;29;19923;-62
2022/11/24 03:47:05;;;;;;;;;;;;;;;;;;4885363;29;20394;-62
2022/11/24 03:49:30;;;;;;;;;;;;;;;;;;4873090;29;19930;-61
2022/11/24 03:51:55;;;;;;;;;;;;;;;;;;4900087;29;20030;-62
2022/11/24 03:54:21;;;;;;;;;;;;;;;;;;4883808;29;19962;-62
2022/11/24 03:56:46;;;;;;;;;;;;;;;;;;4883470;29;20418;-62
2022/11/24 03:59:14;;;;;;;;;;;;;;;;;;4897979;29;19925;-63
2022/11/24 04:01:39;;;;;;;;;;;;;;;;;;4899308;29;20298;-61
2022/11/24 04:04:04;;;;;;;;;;;;;;;;;;4900301;29;19927;-61
2022/11/24 04:06:32;;;;;;;;;;;;;;;;;;4900897;29;19934;-61
2022/11/24 04:08:58;;;;;;;;;;;;;;;;;;4875084;29;19923;-62
2022/11/24 04:14:07;;;;;;;;;;;;;;;;;;4881414;29;19950;-63
2022/11/24 04:16:42;;;;;;;;;;;;;;;;;;4874267;29;19919;-62
2022/11/24 04:19:08;;;;;;;;;;;;;;;;;;4900363;29;20364;-63
2022/11/24 04:21:33;;;;;;;;;;;;;;;;;;4885140;29;19923;-62
2022/11/24 04:23:59;;;;;;;;;;;;;;;;;;4899809;29;19965;-63
2022/11/24 04:26:27;;;;;;;;;;;;;;;;;;4899398;29;19979;-62
2022/11/24 04:28:54;;;;;;;;;;;;;;;;;;4896086;29;21476;-63
2022/11/24 04:31:20;;;;;;;;;;;;;;;;;;4901287;29;20298;-63
2022/11/24 04:33:50;;;;;;;;;;;;;;;;;;4900900;29;20365;-62
2022/11/24 04:36:15;;;;;;;;;;;;;;;;;;4897007;29;20334;-63
2022/11/24 04:38:41;;;;;;;;;;;;;;;;;;4900351;29;20078;-62
2022/11/24 04:41:06;;;;;;;;;;;;;;;;;;4899060;29;19919;-62
2022/11/24 04:43:32;;;;;;;;;;;;;;;;;;4899688;29;20013;-63
2022/11/24 04:46:00;;;;;;;;;;;;;;;;;;4900965;29;19986;-63
2022/11/24 04:48:25;;;;;;;;;;;;;;;;;;4888963;29;21575;-62
2022/11/24 04:50:53;;;;;;;;;;;;;;;;;;4901292;29;20399;-62
2022/11/24 04:53:18;;;;;;;;;;;;;;;;;;4882970;29;20014;-62
2022/11/24 04:55:46;;;;;;;;;;;;;;;;;;4890592;29;20258;-63
2022/11/24 04:58:11;;;;;;;;;;;;;;;;;;4898601;29;20148;-62
2022/11/24 05:00:39;;;;;;;;;;;;;;;;;;4881026;29;19922;-62
2022/11/24 05:03:04;;;;;;;;;;;;;;;;;;4882203;29;20441;-62
2022/11/24 05:05:32;;;;;;;;;;;;;;;;;;4899414;29;20013;-62
2022/11/24 05:07:57;;;;;;;;;;;;;;;;;;4875290;29;19949;-62
2022/11/24 05:10:35;;;;;;;;;;;;;;;;;;4899290;29;20076;-63
2022/11/24 05:13:00;;;;;;;;;;;;;;;;;;4881687;29;20092;-62
2022/11/24 05:15:26;;;;;;;;;;;;;;;;;;4899548;29;19923;-64
2022/11/24 05:17:52;;;;;;;;;;;;;;;;;;4899286;29;19981;-63
2022/11/24 05:20:17;;;;;;;;;;;;;;;;;;4881348;29;20003;-64
2022/11/24 05:22:45;;;;;;;;;;;;;;;;;;4899438;29;19930;-63
2022/11/24 05:25:10;;;;;;;;;;;;;;;;;;4898140;29;20002;-62
2022/11/24 05:27:40;;;;;;;;;;;;;;;;;;4900851;29;19923;-62
2022/11/24 05:30:08;;;;;;;;;;;;;;;;;;4897509;29;19934;-63
2022/11/24 05:32:34;;;;;;;;;;;;;;;;;;4897973;29;19938;-63
2022/11/24 05:35:01;;;;;;;;;;;;;;;;;;4899539;29;20050;-63
2022/11/24 05:37:28;;;;;;;;;;;;;;;;;;4881302;29;20267;-63
2022/11/24 05:39:56;;;;;;;;;;;;;;;;;;4898564;29;19931;-63
2022/11/24 05:42:40;;;;;;;;;;;;;;;;;;4900371;29;19923;-63
2022/11/24 05:45:11;;;;;;;;;;;;;;;;;;4898515;29;19927;-63
2022/11/24 05:47:39;;;;;;;;;;;;;;;;;;4884753;29;19927;-63
2022/11/24 05:50:04;;;;;;;;;;;;;;;;;;4897018;29;19953;-63
2022/11/24 05:52:30;;;;;;;;;;;;;;;;;;4900171;29;20387;-63
2022/11/24 05:54:58;;;;;;;;;;;;;;;;;;4899660;29;19923;-64
2022/11/24 05:57:28;;;;;;;;;;;;;;;;;;4898344;29;20615;-63
2022/11/24 05:59:53;;;;;;;;;;;;;;;;;;4898989;29;19930;-62
2022/11/24 06:02:18;;;;;;;;;;;;;;;;;;4880843;29;19926;-63
2022/11/24 06:04:46;;;;;;;;;;;;;;;;;;4889088;29;20535;-63
2022/11/24 06:07:12;;;;;;;;;;;;;;;;;;4899524;29;19919;-64
2022/11/24 06:09:37;;;;;;;;;;;;;;;;;;4899218;29;20061;-62
2022/11/24 06:12:03;;;;;;;;;;;;;;;;;;4882358;29;20291;-62
2022/11/24 06:14:28;;;;;;;;;;;;;;;;;;4900159;29;19920;-63
2022/11/24 06:16:53;;;;;;;;;;;;;;;;;;4886904;29;20370;-64
2022/11/24 06:19:21;;;;;;;;;;;;;;;;;;4883545;29;19922;-64
2022/11/24 06:21:47;;;;;;;;;;;;;;;;;;4902394;29;20290;-63
2022/11/24 06:24:14;;;;;;;;;;;;;;;;;;4892660;29;20366;-63
2022/11/24 06:26:40;;;;;;;;;;;;;;;;;;4885612;29;19975;-62
2022/11/24 06:29:05;;;;;;;;;;;;;;;;;;4899426;29;19926;-63
2022/11/24 06:31:33;;;;;;;;;;;;;;;;;;4900859;29;20310;-62
2022/11/24 06:34:03;;;;;;;;;;;;;;;;;;4902638;29;20087;-62
2022/11/24 06:36:31;;;;;;;;;;;;;;;;;;4902221;29;19931;-62
2022/11/24 06:38:59;;;;;;;;;;;;;;;;;;4876069;29;20026;-64
2022/11/24 06:41:27;;;;;;;;;;;;;;;;;;4901067;29;19926;-64
2022/11/24 06:43:55;;;;;;;;;;;;;;;;;;4885543;29;20353;-63
2022/11/24 06:46:21;;;;;;;;;;;;;;;;;;4889911;29;19981;-63
2022/11/24 06:48:46;;;;;;;;;;;;;;;;;;4884187;29;20446;-62
2022/11/24 06:51:12;;;;;;;;;;;;;;;;;;4902242;29;19989;-63
2022/11/24 06:53:39;;;;;;;;;;;;;;;;;;4901961;29;20340;-62
2022/11/24 06:56:07;;;;;;;;;;;;;;;;;;4900599;29;20005;-63
2022/11/24 06:58:33;;;;;;;;;;;;;;;;;;4899078;29;19982;-63
2022/11/24 07:01:01;;;;;;;;;;;;;;;;;;4900538;29;19927;-63
2022/11/24 07:06:17;;;;;;;;;;;;;;;;;;4902584;29;19923;-63
2022/11/24 07:08:47;;;;;;;;;;;;;;;;;;4884561;29;20070;-63
2022/11/24 07:11:14;;;;;;;;;;;;;;;;;;4900465;29;19956;-63
2022/11/24 07:13:42;;;;;;;;;;;;;;;;;;4898692;29;19974;-63
2022/11/24 07:16:09;;;;;;;;;;;;;;;;;;4900897;29;19927;-63
2022/11/24 07:18:35;;;;;;;;;;;;;;;;;;4884933;29;20284;-63
2022/11/24 07:21:03;;;;;;;;;;;;;;;;;;4894804;29;19931;-62
2022/11/24 07:23:29;;;;;;;;;;;;;;;;;;4903489;29;19929;-62
2022/11/24 07:25:55;;;;;;;;;;;;;;;;;;4901433;29;19923;-63
2022/11/24 07:28:22;;;;;;;;;;;;;;;;;;4881325;29;19931;-63
2022/11/24 07:30:48;;;;;;;;;;;;;;;;;;4899371;29;19930;-63
2022/11/24 07:33:14;;;;;;;;;;;;;;;;;;4901297;29;19922;-63
2022/11/24 07:35:40;;;;;;;;;;;;;;;;;;4899934;29;20398;-63
2022/11/24 07:38:05;;;;;;;;;;;;;;;;;;4900760;29;19931;-63
2022/11/24 07:40:33;;;;;;;;;;;;;;;;;;4899437;29;20010;-63
2022/11/24 07:42:58;;;;;;;;;;;;;;;;;;4886900;29;20245;-63
2022/11/24 07:45:26;;;;;;;;;;;;;;;;;;4889845;29;19948;-63
2022/11/24 07:47:52;;;;;;;;;;;;;;;;;;4901663;29;19950;-63
2022/11/24 07:53:33;;;;;;;;;;;;;;;;;;4900274;29;20095;-62
2022/11/24 07:55:59;;;;;;;;;;;;;;;;;;4899814;29;20034;-63
2022/11/24 07:58:25;;;;;;;;;;;;;;;;;;4883173;29;19930;-64
2022/11/24 08:00:50;;;;;;;;;;;;;;;;;;4898612;29;19958;-63
2022/11/24 08:03:16;;;;;;;;;;;;;;;;;;4901998;29;19927;-64
2022/11/24 08:05:41;;;;;;;;;;;;;;;;;;4898454;29;19926;-63
2022/11/24 08:08:07;;;;;;;;;;;;;;;;;;4884404;29;19958;-63
2022/11/24 08:10:34;;;;;;;;;;;;;;;;;;4898716;29;19930;-63
2022/11/24 08:13:02;;;;;;;;;;;;;;;;;;4883705;29;19949;-63
2022/11/24 08:15:30;;;;;;;;;;;;;;;;;;4899162;29;19923;-63
2022/11/24 08:17:57;;;;;;;;;;;;;;;;;;4885779;29;19922;-63
2022/11/24 08:20:22;;;;;;;;;;;;;;;;;;4900634;29;20406;-64
2022/11/24 08:22:50;;;;;;;;;;;;;;;;;;4896406;29;19933;-63
2022/11/24 08:25:16;;;;;;;;;;;;;;;;;;4887749;29;20315;-63
2022/11/24 08:27:44;;;;;;;;;;;;;;;;;;4899831;29;19927;-62
2022/11/24 08:30:14;;;;;;;;;;;;;;;;;;4898980;29;19930;-63
2022/11/24 08:32:42;;;;;;;;;;;;;;;;;;4898994;29;20314;-63
2022/11/24 08:35:12;;;;;;;;;;;;;;;;;;4895857;29;19923;-63
2022/11/24 08:37:40;;;;;;;;;;;;;;;;;;4898701;29;19922;-62
2022/11/24 08:43:04;;;;;;;;;;;;;;;;;;4900682;29;19923;-64
2022/11/24 08:45:29;;;;;;;;;;;;;;;;;;4900580;29;19927;-64
2022/11/24 08:47:57;;;;;;;;;;;;;;;;;;4889309;29;19923;-61
2022/11/24 08:50:25;;;;;;;;;;;;;;;;;;4898821;29;19922;-63
2022/11/24 08:52:53;;;;;;;;;;;;;;;;;;4901113;29;19923;-63
2022/11/24 08:55:21;;;;;;;;;;;;;;;;;;4898789;29;20326;-62
2022/11/24 08:57:48;;;;;;;;;;;;;;;;;;4900098;29;19927;-62
2022/11/24 09:00:20;;;;;;;;;;;;;;;;;;4889068;29;19964;-62
2022/11/24 09:02:48;;;;;;;;;;;;;;;;;;4900149;29;19931;-62
2022/11/24 09:05:16;;;;;;;;;;;;;;;;;;4882902;29;19978;-62
2022/11/24 09:07:41;;;;;;;;;;;;;;;;;;4899362;29;20590;-62
2022/11/24 09:10:09;;;;;;;;;;;;;;;;;;4883295;29;20029;-61
2022/11/24 09:12:37;;;;;;;;;;;;;;;;;;4886986;29;20042;-62
2022/11/24 09:15:04;;;;;;;;;;;;;;;;;;4880588;29;20017;-62
2022/11/24 09:17:30;;;;;;;;;;;;;;;;;;4890441;29;19929;-62
2022/11/24 09:19:58;;;;;;;;;;;;;;;;;;4900192;29;20019;-62
2022/11/24 09:22:23;;;;;;;;;;;;;;;;;;4886276;29;19927;-62
2022/11/24 09:24:48;;;;;;;;;;;;;;;;;;4897920;29;20053;-62
2022/11/24 09:27:15;;;;;;;;;;;;;;;;;;4883436;29;20014;-62
2022/11/24 09:29:44;;;;;;;;;;;;;;;;;;4882055;29;19938;-63
2022/11/24 09:32:09;;;;;;;;;;;;;;;;;;4899572;29;19922;-62
2022/11/24 09:34:37;;;;;;;;;;;;;;;;;;4891038;29;19922;-63
2022/11/24 09:37:02;;;;;;;;;;;;;;;;;;4897570;29;19923;-63
2022/11/24 09:39:32;;;;;;;;;;;;;;;;;;4881813;29;19927;-62
2022/11/24 09:41:58;;;;;;;;;;;;;;;;;;4897795;29;19919;-62
2022/11/24 09:44:23;;;;;;;;;;;;;;;;;;4881187;29;20540;-61
2022/11/24 09:46:53;;;;;;;;;;;;;;;;;;4887381;29;20385;-62
2022/11/24 09:49:21;;;;;;;;;;;;;;;;;;4901308;29;20626;-62
2022/11/24 09:51:47;;;;;;;;;;;;;;;;;;4904332;29;20537;-63
2022/11/24 09:54:15;;;;;;;;;;;;;;;;;;4903853;29;20211;-61
2022/11/24 09:56:41;;;;;;;;;;;;;;;;;;4885356;29;19955;-61
2022/11/24 09:59:08;;;;;;;;;;;;;;;;;;4892964;29;20492;-62
2022/11/24 10:01:36;;;;;;;;;;;;;;;;;;4878029;29;20391;-62
2022/11/24 10:04:01;;;;;;;;;;;;;;;;;;4903738;29;19923;-60
2022/11/24 10:06:26;;;;;;;;;;;;;;;;;;4884822;29;19938;-61
2022/11/24 10:08:51;;;;;;;;;;;;;;;;;;4875258;29;19933;-61
2022/11/24 10:11:17;;;;;;;;;;;;;;;;;;4902752;29;19959;-60
2022/11/24 10:13:45;;;;;;;;;;;;;;;;;;4884486;29;19919;-62
2022/11/24 10:16:10;;;;;;;;;;;;;;;;;;4877903;29;19919;-59
2022/11/24 10:18:35;;;;;;;;;;;;;;;;;;4903056;29;20117;-61
2022/11/24 10:21:04;;;;;;;;;;;;;;;;;;4902035;29;20554;-61
2022/11/24 10:23:49;;;;;;;;;;;;;;;;;;4919751;28;19918;-62
2022/11/24 10:26:14;;;;;;;;;;;;;;;;;;4918008;28;19957;-60
2022/11/24 10:28:40;;;;;;;;;;;;;;;;;;4917752;28;20352;-60
2022/11/24 10:31:07;;;;;;;;;;;;;;;;;;4917468;28;19919;-61
2022/11/24 10:33:33;;;;;;;;;;;;;;;;;;4908775;28;19968;-61
2022/11/24 10:35:58;;;;;;;;;;;;;;;;;;4910914;28;20013;-62
2022/11/24 10:38:24;;;;;;;;;;;;;;;;;;4917722;28;22149;-62
2022/11/24 10:40:49;;;;;;;;;;;;;;;;;;4900722;28;19923;-59
2022/11/24 10:43:15;;;;;;;;;;;;;;;;;;4904804;28;19954;-60
2022/11/24 10:45:43;;;;;;;;;;;;;;;;;;4900915;29;19966;-61
2022/11/24 10:48:09;;;;;;;;;;;;;;;;;;4907001;28;20387;-62
2022/11/24 10:50:37;;;;;;;;;;;;;;;;;;4917579;28;20448;-60
2022/11/24 10:53:03;;;;;;;;;;;;;;;;;;4918220;28;20001;-62
2022/11/24 10:55:30;;;;;;;;;;;;;;;;;;4889732;29;19919;-60
2022/11/24 10:57:58;;;;;;;;;;;;;;;;;;4901652;29;19930;-62
2022/11/24 11:00:23;;;;;;;;;;;;;;;;;;4886867;29;19926;-62
2022/11/24 11:02:49;;;;;;;;;;;;;;;;;;4902240;29;20014;-60
2022/11/24 11:05:16;;;;;;;;;;;;;;;;;;4900358;29;19993;-62
2022/11/24 11:07:42;;;;;;;;;;;;;;;;;;4900666;29;20010;-61
2022/11/24 11:10:09;;;;;;;;;;;;;;;;;;4901649;29;19923;-62
2022/11/24 11:12:37;;;;;;;;;;;;;;;;;;4901008;29;19946;-61
2022/11/24 11:15:02;;;;;;;;;;;;;;;;;;4900430;29;20416;-62
2022/11/24 11:17:28;;;;;;;;;;;;;;;;;;4900080;29;19923;-59
2022/11/24 11:19:55;;;;;;;;;;;;;;;;;;4901504;29;19934;-62
2022/11/24 11:22:20;;;;;;;;;;;;;;;;;;4878937;29;19995;-62
2022/11/24 11:24:46;;;;;;;;;;;;;;;;;;4887459;29;20659;-62
2022/11/24 11:27:14;;;;;;;;;;;;;;;;;;4884902;29;19927;-62
2022/11/24 11:29:39;;;;;;;;;;;;;;;;;;4881828;29;19930;-62
2022/11/24 11:32:04;;;;;;;;;;;;;;;;;;4893102;29;19923;-61
2022/11/24 11:34:32;;;;;;;;;;;;;;;;;;4902229;29;20431;-61
2022/11/24 11:36:58;;;;;;;;;;;;;;;;;;4885084;29;19923;-62
2022/11/24 11:39:24;;;;;;;;;;;;;;;;;;4901921;29;19922;-61
2022/11/24 11:41:49;;;;;;;;;;;;;;;;;;4899098;29;19926;-64
2022/11/24 11:44:17;;;;;;;;;;;;;;;;;;4900136;29;20174;-61
2022/11/24 11:46:42;;;;;;;;;;;;;;;;;;4886690;29;20578;-61
2022/11/24 11:49:08;;;;;;;;;;;;;;;;;;4901704;29;19930;-63
2022/11/24 11:51:34;;;;;;;;;;;;;;;;;;4902460;29;19977;-62
2022/11/24 11:53:59;;;;;;;;;;;;;;;;;;4885277;29;20017;-63
2022/11/24 11:56:26;;;;;;;;;;;;;;;;;;4902227;29;20406;-61
2022/11/24 11:58:52;;;;;;;;;;;;;;;;;;4898257;29;20546;-63
2022/11/24 12:01:17;;;;;;;;;;;;;;;;;;4899856;29;19931;-62
2022/11/24 12:03:45;;;;;;;;;;;;;;;;;;4883916;29;20375;-62
2022/11/24 12:06:15;;;;;;;;;;;;;;;;;;4899085;29;20782;-63
2022/11/24 12:08:41;;;;;;;;;;;;;;;;;;4899337;29;20041;-62
2022/11/24 12:11:08;;;;;;;;;;;;;;;;;;4880640;29;21646;-64
2022/11/24 12:13:33;;;;;;;;;;;;;;;;;;4898229;29;19923;-61
2022/11/24 12:16:01;;;;;;;;;;;;;;;;;;4902270;29;19975;-63
2022/11/24 12:21:13;;;;;;;;;;;;;;;;;;4901116;29;20066;-64
2022/11/24 12:23:38;;;;;;;;;;;;;;;;;;4899492;29;19927;-63
2022/11/24 12:26:06;;;;;;;;;;;;;;;;;;4899461;29;20447;-64
2022/11/24 12:28:31;;;;;;;;;;;;;;;;;;4874625;29;19957;-63
2022/11/24 12:30:56;;;;;;;;;;;;;;;;;;4900427;29;20410;-65
2022/11/24 12:33:22;;;;;;;;;;;;;;;;;;4883796;29;19985;-64
2022/11/24 12:35:47;;;;;;;;;;;;;;;;;;4885516;29;19998;-64
2022/11/24 12:38:12;;;;;;;;;;;;;;;;;;4882926;29;19931;-62
2022/11/24 12:40:40;;;;;;;;;;;;;;;;;;4899518;29;19945;-64
2022/11/24 12:43:06;;;;;;;;;;;;;;;;;;4898180;29;20372;-63
2022/11/24 12:45:31;;;;;;;;;;;;;;;;;;4899780;29;19962;-66
2022/11/24 12:47:59;;;;;;;;;;;;;;;;;;4900251;29;20005;-64
2022/11/24 12:50:27;;;;;;;;;;;;;;;;;;4886041;29;19926;-63
2022/11/24 12:52:52;;;;;;;;;;;;;;;;;;4900693;29;19922;-64
2022/11/24 12:55:18;;;;;;;;;;;;;;;;;;4885530;29;19919;-66
2022/11/24 12:57:43;;;;;;;;;;;;;;;;;;4886049;29;19923;-66
2022/11/24 13:02:56;;;;;;;;;;;;;;;;;;4888429;29;19931;-64
2022/11/24 13:05:21;;;;;;;;;;;;;;;;;;4898901;29;20396;-64
2022/11/24 13:07:46;;;;;;;;;;;;;;;;;;4882897;29;20371;-65
2022/11/24 13:10:12;;;;;;;;;;;;;;;;;;4886409;29;19953;-65
2022/11/24 13:12:37;;;;;;;;;;;;;;;;;;4900420;29;19923;-66
2022/11/24 13:15:02;;;;;;;;;;;;;;;;;;4883882;29;20662;-65
2022/11/24 13:17:28;;;;;;;;;;;;;;;;;;4891467;29;19929;-65
2022/11/24 13:19:53;;;;;;;;;;;;;;;;;;4899338;29;19919;-65
2022/11/24 13:22:19;;;;;;;;;;;;;;;;;;4898222;29;19927;-65
2022/11/24 13:24:44;;;;;;;;;;;;;;;;;;4902376;29;19998;-65
2022/11/24 13:27:09;;;;;;;;;;;;;;;;;;4904821;29;20025;-66
2022/11/24 13:29:35;;;;;;;;;;;;;;;;;;4885088;29;20874;-66
2022/11/24 13:32:02;;;;;;;;;;;;;;;;;;4885394;29;19926;-65
2022/11/24 13:34:28;;;;;;;;;;;;;;;;;;4888743;29;20002;-62
2022/11/24 13:36:56;;;;;;;;;;;;;;;;;;4904366;29;19993;-64
2022/11/24 13:39:21;;;;;;;;;;;;;;;;;;4903088;29;19922;-66
2022/11/24 13:41:46;;;;;;;;;;;;;;;;;;4886640;29;19974;-66
2022/11/24 13:44:12;;;;;;;;;;;;;;;;;;4900681;29;19946;-67
2022/11/24 13:46:37;;;;;;;;;;;;;;;;;;4895176;29;19922;-64
2022/11/24 13:49:02;;;;;;;;;;;;;;;;;;4902657;29;19961;-65
2022/11/24 13:51:28;;;;;;;;;;;;;;;;;;4885516;29;20459;-67
2022/11/24 13:53:53;;;;;;;;;;;;;;;;;;4902608;29;19982;-67
2022/11/24 13:56:21;;;;;;;;;;;;;;;;;;4893719;29;19929;-66
2022/11/24 13:58:47;;;;;;;;;;;;;;;;;;4901488;29;20397;-66
2022/11/24 14:01:13;;;;;;;;;;;;;;;;;;4875009;29;21494;-66
2022/11/24 14:03:38;;;;;;;;;;;;;;;;;;4901988;29;19922;-66
2022/11/24 14:06:03;;;;;;;;;;;;;;;;;;4885942;29;20489;-66
2022/11/24 14:08:28;;;;;;;;;;;;;;;;;;4901039;29;19923;-66
2022/11/24 14:10:54;;;;;;;;;;;;;;;;;;4885859;29;20358;-66
2022/11/24 14:13:24;;;;;;;;;;;;;;;;;;4902899;29;20045;-64
2022/11/24 14:15:49;;;;;;;;;;;;;;;;;;4902101;29;19982;-66
2022/11/24 14:18:17;;;;;;;;;;;;;;;;;;4904525;29;19918;-65
2022/11/24 14:20:42;;;;;;;;;;;;;;;;;;4903490;29;19923;-65
2022/11/24 14:23:10;;;;;;;;;;;;;;;;;;4901279;29;19977;-68
2022/11/24 14:25:35;;;;;;;;;;;;;;;;;;4903653;29;19927;-67
2022/11/24 14:28:01;;;;;;;;;;;;;;;;;;4902747;29;19930;-66
2022/11/24 14:30:26;;;;;;;;;;;;;;;;;;4901167;29;19944;-66
2022/11/24 14:32:52;;;;;;;;;;;;;;;;;;4902457;29;19922;-65
2022/11/24 14:35:17;;;;;;;;;;;;;;;;;;4901688;29;20339;-65
2022/11/24 14:37:42;;;;;;;;;;;;;;;;;;4902808;29;19922;-65
2022/11/24 14:40:08;;;;;;;;;;;;;;;;;;4902734;29;19923;-67
2022/11/24 14:42:33;;;;;;;;;;;;;;;;;;4901491;29;20261;-64
2022/11/24 14:44:59;;;;;;;;;;;;;;;;;;4898790;29;19922;-66
2022/11/24 14:47:25;;;;;;;;;;;;;;;;;;4901589;29;19926;-65
2022/11/24 14:49:50;;;;;;;;;;;;;;;;;;4885397;29;19923;-67
2022/11/24 14:52:15;;;;;;;;;;;;;;;;;;4900954;29;20022;-66
2022/11/24 14:54:41;;;;;;;;;;;;;;;;;;4900383;29;20050;-66
2022/11/24 14:57:09;;;;;;;;;;;;;;;;;;4893620;29;19933;-66
2022/11/24 14:59:35;;;;;;;;;;;;;;;;;;4900067;29;19919;-67
2022/11/24 15:02:00;;;;;;;;;;;;;;;;;;4893250;29;19930;-65
2022/11/24 15:04:26;;;;;;;;;;;;;;;;;;4899591;29;20335;-65
2022/11/24 15:06:51;;;;;;;;;;;;;;;;;;4893432;29;19927;-65
2022/11/24 15:09:16;;;;;;;;;;;;;;;;;;4902546;29;20734;-66
2022/11/24 15:11:42;;;;;;;;;;;;;;;;;;4900236;29;20203;-65
2022/11/24 15:14:07;;;;;;;;;;;;;;;;;;4901943;29;19923;-66
2022/11/24 15:16:33;;;;;;;;;;;;;;;;;;4900880;29;20078;-64
2022/11/24 15:18:58;;;;;;;;;;;;;;;;;;4877487;29;19930;-65
2022/11/24 15:21:23;;;;;;;;;;;;;;;;;;4902210;29;19943;-65
2022/11/24 15:23:50;;;;;;;;;;;;;;;;;;4901424;29;20014;-65
2022/11/24 15:26:15;;;;;;;;;;;;;;;;;;4893167;29;20093;-66
2022/11/24 15:28:40;;;;;;;;;;;;;;;;;;4899798;29;20104;-67
2022/11/24 15:31:05;;;;;;;;;;;;;;;;;;4899591;29;19930;-66
2022/11/24 15:33:31;;;;;;;;;;;;;;;;;;4884210;29;19951;-66
2022/11/24 15:35:59;;;;;;;;;;;;;;;;;;4900027;29;21797;-66
2022/11/24 15:38:26;;;;;;;;;;;;;;;;;;4887190;29;20341;-66
2022/11/24 15:40:53;;;;;;;;;;;;;;;;;;4901673;29;19978;-66
2022/11/24 15:43:18;;;;;;;;;;;;;;;;;;4874257;29;19958;-67
2022/11/24 15:45:46;;;;;;;;;;;;;;;;;;4900175;29;21469;-65
2022/11/24 15:48:16;;;;;;;;;;;;;;;;;;4887113;29;19931;-67
2022/11/24 15:50:41;;;;;;;;;;;;;;;;;;4901243;29;19923;-66
2022/11/24 15:53:07;;;;;;;;;;;;;;;;;;4882344;29;19960;-66
2022/11/24 15:55:32;;;;;;;;;;;;;;;;;;4886022;29;19930;-66
2022/11/24 15:57:58;;;;;;;;;;;;;;;;;;4900753;29;19919;-66
2022/11/24 16:00:23;;;;;;;;;;;;;;;;;;4898006;29;19923;-66
2022/11/24 16:02:49;;;;;;;;;;;;;;;;;;4899571;29;20291;-67
2022/11/24 16:05:14;;;;;;;;;;;;;;;;;;4900722;29;19926;-66
2022/11/24 16:07:40;;;;;;;;;;;;;;;;;;4884279;29;20462;-66
2022/11/24 16:10:05;;;;;;;;;;;;;;;;;;4886996;29;19922;-66
2022/11/24 16:12:31;;;;;;;;;;;;;;;;;;4882862;29;20349;-66
2022/11/24 16:14:56;;;;;;;;;;;;;;;;;;4891194;29;20013;-66
2022/11/24 16:17:21;;;;;;;;;;;;;;;;;;4899593;29;19923;-65
2022/11/24 16:19:47;;;;;;;;;;;;;;;;;;4900644;29;19955;-67
2022/11/24 16:22:12;;;;;;;;;;;;;;;;;;4882306;29;19923;-67
2022/11/24 16:24:40;;;;;;;;;;;;;;;;;;4899802;29;20567;-66
2022/11/24 16:27:05;;;;;;;;;;;;;;;;;;4900034;29;19927;-66
2022/11/24 16:29:31;;;;;;;;;;;;;;;;;;4899011;29;21708;-66
2022/11/24 16:31:56;;;;;;;;;;;;;;;;;;4900641;29;19949;-67
2022/11/24 16:34:21;;;;;;;;;;;;;;;;;;4890876;29;20634;-66
2022/11/24 16:36:47;;;;;;;;;;;;;;;;;;4899514;29;19930;-67
2022/11/24 16:39:12;;;;;;;;;;;;;;;;;;4900684;29;20101;-66
2022/11/24 16:41:38;;;;;;;;;;;;;;;;;;4883921;29;19946;-68
2022/11/24 16:44:03;;;;;;;;;;;;;;;;;;4898214;29;19918;-68
2022/11/24 16:46:28;;;;;;;;;;;;;;;;;;4900137;29;19927;-67
2022/11/24 16:48:54;;;;;;;;;;;;;;;;;;4898764;29;19919;-66
2022/11/24 16:51:19;;;;;;;;;;;;;;;;;;4899047;29;19918;-66
2022/11/24 16:53:47;;;;;;;;;;;;;;;;;;4882454;29;19929;-67
2022/11/24 16:56:16;;;;;;;;;;;;;;;;;;4900303;29;19965;-67
2022/11/24 16:58:41;;;;;;;;;;;;;;;;;;4881615;29;20732;-66